createdAt,value
2019-03-19T00:00:22.347Z,72.90
2019-03-19T00:01:26.979Z,72.70
2019-03-19T00:02:32.154Z,72.70
2019-03-19T00:03:36.620Z,72.70
2019-03-19T00:04:41.089Z,72.70
2019-03-19T00:05:45.554Z,72.80
2019-03-19T00:06:50.036Z,72.90
2019-03-19T00:07:54.509Z,73.00
2019-03-19T00:08:58.968Z,73.00
2019-03-19T00:10:04.380Z,73.10
2019-03-19T00:11:08.847Z,73.00
2019-03-19T00:12:13.410Z,73.00
2019-03-19T00:13:17.928Z,73.00
2019-03-19T00:14:22.388Z,73.50
2019-03-19T00:15:26.860Z,73.10
2019-03-19T00:16:31.341Z,73.10
2019-03-19T00:17:35.818Z,73.20
2019-03-19T00:18:40.289Z,73.30
2019-03-19T00:19:44.748Z,73.60
2019-03-19T00:20:49.325Z,73.30
2019-03-19T00:21:53.784Z,73.40
2019-03-19T00:22:58.240Z,73.50
2019-03-19T00:24:02.719Z,73.40
2019-03-19T00:25:07.615Z,73.30
2019-03-19T00:26:12.100Z,73.60
2019-03-19T00:27:16.564Z,74.10
2019-03-19T00:28:21.048Z,73.60
2019-03-19T00:29:25.533Z,73.60
2019-03-19T00:30:30.002Z,73.70
2019-03-19T00:31:34.462Z,73.60
2019-03-19T00:32:38.960Z,73.90
2019-03-19T00:33:43.486Z,73.70
2019-03-19T00:34:47.956Z,73.80
2019-03-19T00:35:52.423Z,73.70
2019-03-19T00:36:57.110Z,73.60
2019-03-19T00:38:01.587Z,73.70
2019-03-19T00:39:07.035Z,73.70
2019-03-19T00:40:13.023Z,73.60
2019-03-19T00:41:17.556Z,73.80
2019-03-19T00:42:22.025Z,73.70
2019-03-19T00:43:26.488Z,73.70
2019-03-19T00:44:30.964Z,74.00
2019-03-19T00:45:35.463Z,73.90
2019-03-19T00:46:39.923Z,74.10
2019-03-19T00:47:44.397Z,73.90
2019-03-19T00:48:48.862Z,74.30
2019-03-19T00:49:53.353Z,73.90
2019-03-19T00:50:57.807Z,73.90
2019-03-19T00:52:02.512Z,74.10
2019-03-19T00:53:06.987Z,73.90
2019-03-19T00:54:11.459Z,73.90
2019-03-19T00:55:16.098Z,73.90
2019-03-19T00:56:20.565Z,73.90
2019-03-19T00:57:25.018Z,73.90
2019-03-19T00:58:29.493Z,74.00
2019-03-19T00:59:33.942Z,73.90
2019-03-19T01:00:38.434Z,73.80
2019-03-19T01:01:42.910Z,73.90
2019-03-19T01:02:47.396Z,74.00
2019-03-19T01:03:51.933Z,73.90
2019-03-19T01:04:56.402Z,73.90
2019-03-19T01:06:00.883Z,73.90
2019-03-19T01:07:05.330Z,73.90
2019-03-19T01:08:09.808Z,74.30
2019-03-19T01:09:14.355Z,74.10
2019-03-19T01:10:18.888Z,74.10
2019-03-19T01:11:23.373Z,74.10
2019-03-19T01:12:27.837Z,74.00
2019-03-19T01:13:32.304Z,74.00
2019-03-19T01:14:36.779Z,74.00
2019-03-19T01:15:41.271Z,74.00
2019-03-19T01:16:45.740Z,74.00
2019-03-19T01:17:50.218Z,73.90
2019-03-19T01:18:54.670Z,73.90
2019-03-19T01:19:59.154Z,73.90
2019-03-19T01:21:03.696Z,73.90
2019-03-19T01:22:08.181Z,73.90
2019-03-19T01:23:12.665Z,73.90
2019-03-19T01:24:17.138Z,73.90
2019-03-19T01:25:21.641Z,73.70
2019-03-19T01:26:26.096Z,73.70
2019-03-19T01:27:30.579Z,73.90
2019-03-19T01:28:35.060Z,73.70
2019-03-19T01:29:39.528Z,73.70
2019-03-19T01:30:44.002Z,73.70
2019-03-19T01:31:48.460Z,74.50
2019-03-19T01:32:53.003Z,73.60
2019-03-19T01:33:57.490Z,73.60
2019-03-19T01:35:01.944Z,73.60
2019-03-19T01:36:06.426Z,73.60
2019-03-19T01:37:10.897Z,73.60
2019-03-19T01:38:15.372Z,73.60
2019-03-19T01:39:19.827Z,73.60
2019-03-19T01:40:24.300Z,73.60
2019-03-19T01:41:28.759Z,73.60
2019-03-19T01:42:33.223Z,73.50
2019-03-19T01:43:37.694Z,73.60
2019-03-19T01:44:42.146Z,73.50
2019-03-19T01:45:46.622Z,73.50
2019-03-19T01:46:51.151Z,73.50
2019-03-19T01:47:55.672Z,73.60
2019-03-19T01:49:00.136Z,73.60
2019-03-19T01:50:07.218Z,73.50
2019-03-19T01:51:11.666Z,73.50
2019-03-19T01:52:16.170Z,73.50
2019-03-19T01:53:20.682Z,73.40
2019-03-19T01:54:25.130Z,73.60
2019-03-19T01:55:29.603Z,73.50
2019-03-19T01:56:34.081Z,73.50
2019-03-19T01:57:38.545Z,73.50
2019-03-19T01:58:43.015Z,73.60
2019-03-19T01:59:47.485Z,73.60
2019-03-19T02:00:51.943Z,73.70
2019-03-19T02:01:56.408Z,73.70
2019-03-19T02:03:00.870Z,73.60
2019-03-19T02:04:05.413Z,73.70
2019-03-19T02:05:10.154Z,73.70
2019-03-19T02:06:14.603Z,73.70
2019-03-19T02:07:19.066Z,73.80
2019-03-19T02:08:23.537Z,73.80
2019-03-19T02:09:28.003Z,74.40
2019-03-19T02:10:32.493Z,73.80
2019-03-19T02:11:38.436Z,73.90
2019-03-19T02:12:43.331Z,74.00
2019-03-19T02:13:48.271Z,74.10
2019-03-19T02:14:52.766Z,74.00
2019-03-19T02:15:57.295Z,74.00
2019-03-19T02:17:01.760Z,74.00
2019-03-19T02:18:06.297Z,74.00
2019-03-19T02:19:10.768Z,73.90
2019-03-19T02:20:16.267Z,74.00
2019-03-19T02:21:20.720Z,74.40
2019-03-19T02:22:25.190Z,74.10
2019-03-19T02:23:29.660Z,75.00
2019-03-19T02:24:34.111Z,74.20
2019-03-19T02:25:38.580Z,74.10
2019-03-19T02:26:43.030Z,74.10
2019-03-19T02:27:47.502Z,74.30
2019-03-19T02:28:51.972Z,74.30
2019-03-19T02:29:56.453Z,74.20
2019-03-19T02:31:00.990Z,74.30
2019-03-19T02:32:05.693Z,74.30
2019-03-19T02:33:10.237Z,74.20
2019-03-19T02:34:14.795Z,74.30
2019-03-19T02:35:19.269Z,74.20
2019-03-19T02:36:23.750Z,74.30
2019-03-19T02:37:28.228Z,74.40
2019-03-19T02:38:32.771Z,74.40
2019-03-19T02:39:37.379Z,74.30
2019-03-19T02:40:41.906Z,74.30
2019-03-19T02:41:46.413Z,74.30
2019-03-19T02:42:50.957Z,74.30
2019-03-19T02:43:55.410Z,74.30
2019-03-19T02:44:59.901Z,74.30
2019-03-19T02:46:04.417Z,74.50
2019-03-19T02:47:08.946Z,74.40
2019-03-19T02:48:13.471Z,74.30
2019-03-19T02:49:17.991Z,74.40
2019-03-19T02:50:22.462Z,74.40
2019-03-19T02:51:26.937Z,74.20
2019-03-19T02:52:31.399Z,74.20
2019-03-19T02:53:35.876Z,74.50
2019-03-19T02:54:40.342Z,74.40
2019-03-19T02:55:44.827Z,74.40
2019-03-19T02:56:49.531Z,74.40
2019-03-19T02:57:54.009Z,74.40
2019-03-19T02:58:58.483Z,74.40
2019-03-19T03:00:04.680Z,74.60
2019-03-19T03:01:09.146Z,74.50
2019-03-19T03:02:13.606Z,74.40
2019-03-19T03:03:18.221Z,74.60
2019-03-19T03:04:22.694Z,74.70
2019-03-19T03:05:27.148Z,74.50
2019-03-19T03:06:31.617Z,74.60
2019-03-19T03:07:36.184Z,75.60
2019-03-19T03:08:40.643Z,74.70
2019-03-19T03:09:45.120Z,74.70
2019-03-19T03:10:49.605Z,74.90
2019-03-19T03:11:54.101Z,74.80
2019-03-19T03:12:59.443Z,75.70
2019-03-19T03:14:04.072Z,74.80
2019-03-19T03:15:11.077Z,75.00
2019-03-19T03:16:15.530Z,75.00
2019-03-19T03:17:19.998Z,74.90
2019-03-19T03:18:24.473Z,75.10
2019-03-19T03:19:28.949Z,74.90
2019-03-19T03:20:33.428Z,75.00
2019-03-19T03:21:37.974Z,75.00
2019-03-19T03:22:42.438Z,75.00
2019-03-19T03:23:46.978Z,75.00
2019-03-19T03:24:51.463Z,75.00
2019-03-19T03:25:55.921Z,75.00
2019-03-19T03:27:02.321Z,75.80
2019-03-19T03:28:06.577Z,75.00
2019-03-19T03:29:11.110Z,75.10
2019-03-19T03:30:24.316Z,75.10
2019-03-19T03:31:29.191Z,75.30
2019-03-19T03:32:33.873Z,75.10
2019-03-19T03:33:38.410Z,75.10
2019-03-19T03:34:42.880Z,75.10
2019-03-19T03:35:47.446Z,75.10
2019-03-19T03:36:51.904Z,75.00
2019-03-19T03:37:56.511Z,75.00
2019-03-19T03:39:00.986Z,75.00
2019-03-19T03:40:11.112Z,75.00
2019-03-19T03:41:15.628Z,75.10
2019-03-19T03:42:20.103Z,75.00
2019-03-19T03:43:24.824Z,75.70
2019-03-19T03:44:29.323Z,74.90
2019-03-19T03:45:33.801Z,74.80
2019-03-19T03:46:38.332Z,74.80
2019-03-19T03:47:42.855Z,74.90
2019-03-19T03:48:47.358Z,75.00
2019-03-19T03:49:51.842Z,75.00
2019-03-19T03:50:56.320Z,75.00
2019-03-19T03:52:00.911Z,75.00
2019-03-19T03:53:05.385Z,75.00
2019-03-19T03:54:09.940Z,75.00
2019-03-19T03:55:19.173Z,75.10
2019-03-19T03:56:23.652Z,75.00
2019-03-19T03:57:28.120Z,75.00
2019-03-19T03:58:32.585Z,75.00
2019-03-19T03:59:37.093Z,75.00
2019-03-19T04:00:41.594Z,74.80
2019-03-19T04:01:46.135Z,74.70
2019-03-19T04:02:50.693Z,74.70
2019-03-19T04:03:55.154Z,74.70
2019-03-19T04:04:59.688Z,74.60
2019-03-19T04:06:04.477Z,74.60
2019-03-19T04:07:08.960Z,74.70
2019-03-19T04:08:13.420Z,74.60
2019-03-19T04:09:17.889Z,74.60
2019-03-19T04:10:22.538Z,74.60
2019-03-19T04:11:27.047Z,74.60
2019-03-19T04:12:31.517Z,74.60
2019-03-19T04:13:36.199Z,74.50
2019-03-19T04:14:40.651Z,74.60
2019-03-19T04:15:45.132Z,74.60
2019-03-19T04:16:49.602Z,74.50
2019-03-19T04:17:54.051Z,74.60
2019-03-19T04:18:58.591Z,74.60
2019-03-19T04:20:03.818Z,74.50
2019-03-19T04:21:08.357Z,74.40
2019-03-19T04:22:15.784Z,74.40
2019-03-19T04:23:19.103Z,74.30
2019-03-19T04:24:23.650Z,74.30
2019-03-19T04:25:28.192Z,74.30
2019-03-19T04:26:32.721Z,74.40
2019-03-19T04:27:40.117Z,74.30
2019-03-19T04:28:43.557Z,74.30
2019-03-19T04:29:48.059Z,74.30
2019-03-19T04:30:52.565Z,74.30
2019-03-19T04:31:57.033Z,74.20
2019-03-19T04:33:01.515Z,74.10
2019-03-19T04:34:05.993Z,74.20
2019-03-19T04:35:10.442Z,74.20
2019-03-19T04:36:14.916Z,74.30
2019-03-19T04:37:19.490Z,74.40
2019-03-19T04:38:24.016Z,74.30
2019-03-19T04:39:28.655Z,74.40
2019-03-19T04:40:33.130Z,74.30
2019-03-19T04:41:37.692Z,74.40
2019-03-19T04:42:42.206Z,74.40
2019-03-19T04:43:46.712Z,74.40
2019-03-19T04:44:51.182Z,74.30
2019-03-19T04:45:55.759Z,74.30
2019-03-19T04:47:00.220Z,74.30
2019-03-19T04:48:04.759Z,74.30
2019-03-19T04:49:09.312Z,74.30
2019-03-19T04:50:14.705Z,74.30
2019-03-19T04:51:19.178Z,74.20
2019-03-19T04:52:23.641Z,74.20
2019-03-19T04:53:28.118Z,74.20
2019-03-19T04:54:32.593Z,74.20
2019-03-19T04:55:37.055Z,74.10
2019-03-19T04:56:41.542Z,74.20
2019-03-19T04:57:46.018Z,74.10
2019-03-19T04:58:50.470Z,74.20
2019-03-19T04:59:54.926Z,74.30
2019-03-19T05:00:59.547Z,74.20
2019-03-19T05:02:04.162Z,74.20
2019-03-19T05:03:08.683Z,74.30
2019-03-19T05:04:13.262Z,74.20
2019-03-19T05:05:18.188Z,74.20
2019-03-19T05:06:22.719Z,74.20
2019-03-19T05:07:27.187Z,74.10
2019-03-19T05:08:31.652Z,74.10
2019-03-19T05:09:36.140Z,74.10
2019-03-19T05:10:40.615Z,74.10
2019-03-19T05:11:45.120Z,74.00
2019-03-19T05:12:49.776Z,74.10
2019-03-19T05:13:54.245Z,74.00
2019-03-19T05:14:58.820Z,74.00
2019-03-19T05:16:03.312Z,74.00
2019-03-19T05:17:07.855Z,74.00
2019-03-19T05:18:12.329Z,73.90
2019-03-19T05:19:16.864Z,74.00
2019-03-19T05:20:21.394Z,73.90
2019-03-19T05:21:25.896Z,73.90
2019-03-19T05:22:30.410Z,73.90
2019-03-19T05:23:34.949Z,73.90
2019-03-19T05:24:39.429Z,73.90
2019-03-19T05:25:43.935Z,73.80
2019-03-19T05:26:48.465Z,73.80
2019-03-19T05:27:52.993Z,73.80
2019-03-19T05:28:57.466Z,73.80
2019-03-19T05:30:01.932Z,73.70
2019-03-19T05:31:06.410Z,73.70
2019-03-19T05:32:11.007Z,73.70
2019-03-19T05:33:15.478Z,73.60
2019-03-19T05:34:20.160Z,73.60
2019-03-19T05:35:24.868Z,73.60
2019-03-19T05:36:29.527Z,73.60
2019-03-19T05:37:33.998Z,73.50
2019-03-19T05:38:38.471Z,73.50
2019-03-19T05:39:42.925Z,73.50
2019-03-19T05:40:47.424Z,73.50
2019-03-19T05:41:51.891Z,73.40
2019-03-19T05:42:56.442Z,73.40
2019-03-19T05:44:00.929Z,73.30
2019-03-19T05:45:08.328Z,73.40
2019-03-19T05:46:13.041Z,73.40
2019-03-19T05:47:17.509Z,73.40
2019-03-19T05:48:21.982Z,73.30
2019-03-19T05:49:26.451Z,73.40
2019-03-19T05:50:30.936Z,73.30
2019-03-19T05:51:35.406Z,73.30
2019-03-19T05:52:39.862Z,73.40
2019-03-19T05:53:44.353Z,73.20
2019-03-19T05:54:48.806Z,73.20
2019-03-19T05:55:53.312Z,73.20
2019-03-19T05:56:57.840Z,73.20
2019-03-19T05:58:02.303Z,73.20
2019-03-19T05:59:06.754Z,73.20
2019-03-19T06:00:17.883Z,73.20
2019-03-19T06:01:22.382Z,73.20
2019-03-19T06:02:26.888Z,73.30
2019-03-19T06:03:31.538Z,73.20
2019-03-19T06:04:36.004Z,73.40
2019-03-19T06:05:40.489Z,73.50
2019-03-19T06:06:44.965Z,73.40
2019-03-19T06:07:49.446Z,73.40
2019-03-19T06:08:53.897Z,73.40
2019-03-19T06:09:58.401Z,73.40
2019-03-19T06:11:02.966Z,73.30
2019-03-19T06:12:07.501Z,73.30
2019-03-19T06:13:11.969Z,73.20
2019-03-19T06:14:16.440Z,73.20
2019-03-19T06:15:20.911Z,73.20
2019-03-19T06:16:25.424Z,73.30
2019-03-19T06:17:30.057Z,73.40
2019-03-19T06:18:35.546Z,73.40
2019-03-19T06:19:40.182Z,73.40
2019-03-19T06:20:44.678Z,73.50
2019-03-19T06:21:49.138Z,73.50
2019-03-19T06:22:53.609Z,73.50
2019-03-19T06:23:58.072Z,73.40
2019-03-19T06:25:02.554Z,73.40
2019-03-19T06:26:07.035Z,73.30
2019-03-19T06:27:11.505Z,73.30
2019-03-19T06:28:16.007Z,73.30
2019-03-19T06:29:20.538Z,73.20
2019-03-19T06:30:25.477Z,73.20
2019-03-19T06:31:29.961Z,73.20
2019-03-19T06:32:34.440Z,73.20
2019-03-19T06:33:39.097Z,73.20
2019-03-19T06:34:43.789Z,73.30
2019-03-19T06:35:48.246Z,73.40
2019-03-19T06:36:52.846Z,73.40
2019-03-19T06:37:57.602Z,73.50
2019-03-19T06:39:02.068Z,73.50
2019-03-19T06:40:14.654Z,73.50
2019-03-19T06:41:19.138Z,73.40
2019-03-19T06:42:23.629Z,73.40
2019-03-19T06:43:28.098Z,73.40
2019-03-19T06:44:32.550Z,73.40
2019-03-19T06:45:37.039Z,73.40
2019-03-19T06:46:41.542Z,73.20
2019-03-19T06:47:46.011Z,73.10
2019-03-19T06:48:50.499Z,73.10
2019-03-19T06:49:54.978Z,73.10
2019-03-19T06:50:59.439Z,73.10
2019-03-19T06:52:03.987Z,73.10
2019-03-19T06:53:08.530Z,73.20
2019-03-19T06:54:12.991Z,73.20
2019-03-19T06:55:20.812Z,73.20
2019-03-19T06:56:25.313Z,73.10
2019-03-19T06:57:38.958Z,73.30
2019-03-19T06:58:35.969Z,73.30
2019-03-19T06:59:40.584Z,73.30
2019-03-19T07:00:45.057Z,73.10
2019-03-19T07:01:49.519Z,73.30
2019-03-19T07:02:54.009Z,73.30
2019-03-19T07:03:58.485Z,73.30
2019-03-19T07:05:03.992Z,73.20
2019-03-19T07:06:08.477Z,73.20
2019-03-19T07:07:13.161Z,73.10
2019-03-19T07:08:17.656Z,73.00
2019-03-19T07:09:22.121Z,72.90
2019-03-19T07:10:26.585Z,73.00
2019-03-19T07:11:31.171Z,72.80
2019-03-19T07:12:35.630Z,72.80
2019-03-19T07:13:40.116Z,72.70
2019-03-19T07:14:44.584Z,72.60
2019-03-19T07:15:49.067Z,72.50
2019-03-19T07:16:53.530Z,72.40
2019-03-19T07:17:58.012Z,72.30
2019-03-19T07:19:02.474Z,72.30
2019-03-19T07:20:12.467Z,72.40
2019-03-19T07:21:17.008Z,72.40
2019-03-19T07:22:21.458Z,72.50
2019-03-19T07:23:25.956Z,72.60
2019-03-19T07:24:30.402Z,73.30
2019-03-19T07:25:34.881Z,72.50
2019-03-19T07:26:39.418Z,72.60
2019-03-19T07:27:43.954Z,72.60
2019-03-19T07:28:48.468Z,72.50
2019-03-19T07:29:53.270Z,72.40
2019-03-19T07:30:57.754Z,72.30
2019-03-19T07:32:02.223Z,72.20
2019-03-19T07:33:06.692Z,72.10
2019-03-19T07:34:11.343Z,71.90
2019-03-19T07:35:16.070Z,71.90
2019-03-19T07:36:20.524Z,71.90
2019-03-19T07:37:24.999Z,71.80
2019-03-19T07:38:29.514Z,71.70
2019-03-19T07:39:34.020Z,71.60
2019-03-19T07:40:38.577Z,71.50
2019-03-19T07:41:43.145Z,71.40
2019-03-19T07:42:47.855Z,71.30
2019-03-19T07:43:52.330Z,71.20
2019-03-19T07:44:56.796Z,71.40
2019-03-19T07:46:01.257Z,71.40
2019-03-19T07:47:05.714Z,71.50
2019-03-19T07:48:10.191Z,71.60
2019-03-19T07:49:14.645Z,71.70
2019-03-19T07:50:21.365Z,71.70
2019-03-19T07:51:25.871Z,71.70
2019-03-19T07:52:30.405Z,71.70
2019-03-19T07:53:34.871Z,71.70
2019-03-19T07:54:39.325Z,71.40
2019-03-19T07:55:43.822Z,71.40
2019-03-19T07:56:48.291Z,71.20
2019-03-19T07:57:52.798Z,71.30
2019-03-19T07:58:57.300Z,71.30
2019-03-19T08:00:01.787Z,71.30
2019-03-19T08:01:06.436Z,71.30
2019-03-19T08:02:11.278Z,71.30
2019-03-19T08:03:16.552Z,71.20
2019-03-19T08:04:21.197Z,71.10
2019-03-19T08:05:33.004Z,71.10
2019-03-19T08:06:32.834Z,70.80
2019-03-19T08:07:37.584Z,70.40
2019-03-19T08:08:42.059Z,70.20
2019-03-19T08:09:46.521Z,69.90
2019-03-19T08:10:51.108Z,69.70
2019-03-19T08:11:55.721Z,69.40
2019-03-19T08:13:00.250Z,69.10
2019-03-19T08:14:04.778Z,68.70
2019-03-19T08:15:15.099Z,68.50
2019-03-19T08:16:27.445Z,68.30
2019-03-19T08:17:25.971Z,68.40
2019-03-19T08:18:30.693Z,68.20
2019-03-19T08:19:35.171Z,68.80
2019-03-19T08:20:39.657Z,68.00
2019-03-19T08:21:44.123Z,68.20
2019-03-19T08:22:48.623Z,68.20
2019-03-19T08:23:53.077Z,68.20
2019-03-19T08:24:57.582Z,68.30
2019-03-19T08:26:02.061Z,68.20
2019-03-19T08:27:06.536Z,68.00
2019-03-19T08:28:11.017Z,68.20
2019-03-19T08:29:15.490Z,68.30
2019-03-19T08:30:24.804Z,68.10
2019-03-19T08:31:29.673Z,67.90
2019-03-19T08:32:34.169Z,67.80
2019-03-19T08:33:38.648Z,67.60
2019-03-19T08:34:43.133Z,67.30
2019-03-19T08:35:47.629Z,67.10
2019-03-19T08:36:52.194Z,66.90
2019-03-19T08:37:56.672Z,66.80
2019-03-19T08:39:01.146Z,66.70
2019-03-19T08:40:08.826Z,66.60
2019-03-19T08:41:13.296Z,66.50
2019-03-19T08:42:17.779Z,66.50
2019-03-19T08:43:22.265Z,66.90
2019-03-19T08:44:27.967Z,67.10
2019-03-19T08:45:32.677Z,67.40
2019-03-19T08:46:37.141Z,67.90
2019-03-19T08:47:41.652Z,68.40
2019-03-19T08:48:46.243Z,68.80
2019-03-19T08:49:50.732Z,69.30
2019-03-19T08:50:55.208Z,69.50
2019-03-19T08:51:59.755Z,69.80
2019-03-19T08:53:04.307Z,70.30
2019-03-19T08:54:08.773Z,70.50
2019-03-19T08:55:13.243Z,71.50
2019-03-19T08:56:17.722Z,70.40
2019-03-19T08:57:22.214Z,69.90
2019-03-19T08:58:26.690Z,69.30
2019-03-19T08:59:31.177Z,69.20
2019-03-19T09:00:35.696Z,68.80
2019-03-19T09:01:40.176Z,68.60
2019-03-19T09:02:44.670Z,68.50
2019-03-19T09:03:49.181Z,68.50
2019-03-19T09:04:53.697Z,68.50
2019-03-19T09:05:58.168Z,67.50
2019-03-19T09:07:02.635Z,66.70
2019-03-19T09:08:07.194Z,66.00
2019-03-19T09:09:11.673Z,65.40
2019-03-19T09:10:20.504Z,65.00
2019-03-19T09:11:24.990Z,65.20
2019-03-19T09:13:33.511Z,63.90
2019-03-19T09:14:37.994Z,63.00
2019-03-19T09:15:42.704Z,62.40
2019-03-19T09:16:47.190Z,61.70
2019-03-19T09:17:51.669Z,60.60
2019-03-19T09:18:56.214Z,59.80
2019-03-19T09:20:00.686Z,59.10
2019-03-19T09:21:05.170Z,58.70
2019-03-19T09:22:09.623Z,58.20
2019-03-19T09:23:14.112Z,57.80
2019-03-19T09:24:18.618Z,56.90
2019-03-19T09:25:23.093Z,56.30
2019-03-19T09:26:27.564Z,55.70
2019-03-19T09:27:32.031Z,55.60
2019-03-19T09:28:36.504Z,55.10
2019-03-19T09:29:41.009Z,54.60
2019-03-19T09:30:45.749Z,53.80
2019-03-19T09:31:50.229Z,52.90
2019-03-19T09:32:54.727Z,52.30
2019-03-19T09:33:59.188Z,51.50
2019-03-19T09:35:04.324Z,50.70
2019-03-19T09:36:08.799Z,50.00
2019-03-19T09:37:13.303Z,49.10
2019-03-19T09:38:17.768Z,48.90
2019-03-19T09:39:22.240Z,48.70
2019-03-19T09:40:26.717Z,48.50
2019-03-19T09:41:31.304Z,48.30
2019-03-19T09:42:35.857Z,48.10
2019-03-19T09:43:40.343Z,48.10
2019-03-19T09:44:44.830Z,48.50
2019-03-19T09:45:49.287Z,48.70
2019-03-19T09:46:53.831Z,49.50
2019-03-19T09:47:58.319Z,48.70
2019-03-19T09:49:02.799Z,48.30
2019-03-19T09:50:18.445Z,47.90
2019-03-19T09:51:23.048Z,47.70
2019-03-19T09:52:27.525Z,47.60
2019-03-19T09:53:32.315Z,47.30
2019-03-19T09:54:36.777Z,47.80
2019-03-19T09:55:41.324Z,47.00
2019-03-19T09:56:45.918Z,46.80
2019-03-19T09:57:50.486Z,47.00
2019-03-19T09:58:54.972Z,47.10
2019-03-19T09:59:59.436Z,47.90
2019-03-19T10:01:04.064Z,47.40
2019-03-19T10:02:08.556Z,47.80
2019-03-19T10:03:13.017Z,48.50
2019-03-19T10:04:17.512Z,49.40
2019-03-19T10:05:22.058Z,50.40
2019-03-19T10:06:26.548Z,51.60
2019-03-19T10:07:31.007Z,51.70
2019-03-19T10:08:35.489Z,52.30
2019-03-19T10:10:44.182Z,52.80
2019-03-19T10:11:48.728Z,54.00
2019-03-19T10:12:53.376Z,53.60
2019-03-19T10:13:57.836Z,53.50
2019-03-19T10:15:02.335Z,52.40
2019-03-19T10:16:07.733Z,51.70
2019-03-19T10:17:12.419Z,50.70
2019-03-19T10:18:16.893Z,49.90
2019-03-19T10:19:21.358Z,49.70
2019-03-19T10:20:26.015Z,49.90
2019-03-19T10:21:30.522Z,50.00
2019-03-19T10:22:34.982Z,50.10
2019-03-19T10:23:39.457Z,50.20
2019-03-19T10:24:43.927Z,50.20
2019-03-19T10:25:48.500Z,50.30
2019-03-19T10:26:52.974Z,50.00
2019-03-19T10:27:57.444Z,49.80
2019-03-19T10:29:02.112Z,49.40
2019-03-19T10:30:20.696Z,48.70
2019-03-19T10:31:25.193Z,48.80
2019-03-19T10:32:30.587Z,48.70
2019-03-19T10:33:35.283Z,48.10
2019-03-19T10:34:39.769Z,48.30
2019-03-19T10:35:44.271Z,48.40
2019-03-19T10:36:48.752Z,48.30
2019-03-19T10:38:57.268Z,47.40
2019-03-19T10:40:01.733Z,47.90
2019-03-19T10:41:07.826Z,47.70
2019-03-19T10:42:12.402Z,47.70
2019-03-19T10:43:16.878Z,47.40
2019-03-19T10:44:21.348Z,46.80
2019-03-19T10:45:25.887Z,46.70
2019-03-19T10:46:30.378Z,46.30
2019-03-19T10:47:34.853Z,46.10
2019-03-19T10:48:39.341Z,45.20
2019-03-19T10:49:43.976Z,44.70
2019-03-19T10:50:48.708Z,42.80
2019-03-19T10:51:53.179Z,41.40
2019-03-19T10:52:57.646Z,39.90
2019-03-19T10:54:02.190Z,39.30
2019-03-19T10:55:07.273Z,38.30
2019-03-19T10:56:11.740Z,37.70
2019-03-19T10:57:16.216Z,37.20
2019-03-19T10:58:20.733Z,36.70
2019-03-19T10:59:25.362Z,36.30
2019-03-19T11:00:29.970Z,36.20
2019-03-19T11:01:34.447Z,36.20
2019-03-19T11:02:38.935Z,36.50
2019-03-19T11:03:43.443Z,37.00
2019-03-19T11:04:47.936Z,37.80
2019-03-19T11:05:52.426Z,38.60
2019-03-19T11:06:56.915Z,39.10
2019-03-19T11:08:01.435Z,39.10
2019-03-19T11:09:07.315Z,39.20
2019-03-19T11:10:13.550Z,38.80
2019-03-19T11:11:18.051Z,38.40
2019-03-19T11:12:22.542Z,38.40
2019-03-19T11:13:27.105Z,38.20
2019-03-19T11:14:31.756Z,38.20
2019-03-19T11:15:36.202Z,38.20
2019-03-19T11:16:40.689Z,37.80
2019-03-19T11:17:45.562Z,37.70
2019-03-19T11:18:50.059Z,37.60
2019-03-19T11:19:54.534Z,37.80
2019-03-19T11:20:59.040Z,37.70
2019-03-19T11:22:03.573Z,37.70
2019-03-19T11:23:08.062Z,37.80
2019-03-19T11:24:12.653Z,37.80
2019-03-19T11:25:25.081Z,37.90
2019-03-19T11:26:29.547Z,47.60
2019-03-19T11:27:34.041Z,38.10
2019-03-19T11:28:38.525Z,38.20
2019-03-19T11:29:43.089Z,38.40
2019-03-19T11:30:47.665Z,38.40
2019-03-19T11:31:52.141Z,38.50
2019-03-19T11:32:56.633Z,39.00
2019-03-19T11:34:01.108Z,38.40
2019-03-19T11:35:08.038Z,38.60
2019-03-19T11:36:13.383Z,38.70
2019-03-19T11:37:17.874Z,38.70
2019-03-19T11:38:22.347Z,38.80
2019-03-19T11:39:26.838Z,38.80
2019-03-19T11:40:31.355Z,39.00
2019-03-19T11:41:35.898Z,39.20
2019-03-19T11:42:40.440Z,39.40
2019-03-19T11:43:44.915Z,39.60
2019-03-19T11:44:49.433Z,39.70
2019-03-19T11:45:53.912Z,40.40
2019-03-19T11:46:58.527Z,39.90
2019-03-19T11:48:03.161Z,40.10
2019-03-19T11:49:07.842Z,40.00
2019-03-19T11:50:17.699Z,40.10
2019-03-19T11:51:22.191Z,39.80
2019-03-19T11:52:26.709Z,40.70
2019-03-19T11:53:31.452Z,40.20
2019-03-19T11:54:35.974Z,40.30
2019-03-19T11:55:40.480Z,40.40
2019-03-19T11:56:45.145Z,40.60
2019-03-19T11:57:49.684Z,40.80
2019-03-19T11:58:54.179Z,41.10
2019-03-19T11:59:58.630Z,41.30
2019-03-19T12:01:04.524Z,41.50
2019-03-19T12:02:09.002Z,41.70
2019-03-19T12:03:16.358Z,41.80
2019-03-19T12:04:19.770Z,41.90
2019-03-19T12:05:24.310Z,41.90
2019-03-19T12:06:29.142Z,42.40
2019-03-19T12:07:33.601Z,41.70
2019-03-19T12:08:38.079Z,41.90
2019-03-19T12:09:42.586Z,42.00
2019-03-19T12:10:47.272Z,42.00
2019-03-19T12:11:52.031Z,42.00
2019-03-19T12:12:56.673Z,41.90
2019-03-19T12:14:01.156Z,41.70
2019-03-19T12:15:08.708Z,41.70
2019-03-19T12:16:13.185Z,41.70
2019-03-19T12:17:17.667Z,41.60
2019-03-19T12:18:22.284Z,41.80
2019-03-19T12:19:26.769Z,42.10
2019-03-19T12:20:31.245Z,42.20
2019-03-19T12:21:35.806Z,42.20
2019-03-19T12:22:40.331Z,42.20
2019-03-19T12:23:45.009Z,42.30
2019-03-19T12:24:49.655Z,42.40
2019-03-19T12:25:54.326Z,42.30
2019-03-19T12:26:58.921Z,42.30
2019-03-19T12:28:04.123Z,42.30
2019-03-19T12:29:08.622Z,42.20
2019-03-19T12:30:22.999Z,42.00
2019-03-19T12:31:27.310Z,42.10
2019-03-19T12:32:31.840Z,43.00
2019-03-19T12:33:40.869Z,42.30
2019-03-19T12:34:43.030Z,42.20
2019-03-19T12:35:47.606Z,42.00
2019-03-19T12:36:52.086Z,42.10
2019-03-19T12:37:56.558Z,42.00
2019-03-19T12:39:01.053Z,42.10
2019-03-19T12:40:11.430Z,42.80
2019-03-19T12:41:15.905Z,42.00
2019-03-19T12:42:20.474Z,41.50
2019-03-19T12:43:25.059Z,42.20
2019-03-19T12:44:29.533Z,41.90
2019-03-19T12:45:34.080Z,42.00
2019-03-19T12:46:38.552Z,41.90
2019-03-19T12:47:43.175Z,41.70
2019-03-19T12:48:47.670Z,41.70
2019-03-19T12:49:52.184Z,41.70
2019-03-19T12:50:56.656Z,41.70
2019-03-19T12:52:01.135Z,41.80
2019-03-19T12:53:05.591Z,42.00
2019-03-19T12:54:10.053Z,42.10
2019-03-19T12:55:14.687Z,42.10
2019-03-19T12:56:19.172Z,41.90
2019-03-19T12:57:23.664Z,42.00
2019-03-19T12:58:28.146Z,41.90
2019-03-19T12:59:32.922Z,41.80
2019-03-19T13:00:37.402Z,41.70
2019-03-19T13:01:41.994Z,41.90
2019-03-19T13:02:46.518Z,42.60
2019-03-19T13:03:51.004Z,42.10
2019-03-19T13:04:55.498Z,42.20
2019-03-19T13:05:59.999Z,42.20
2019-03-19T13:07:04.616Z,42.30
2019-03-19T13:08:09.082Z,42.20
2019-03-19T13:09:13.586Z,42.20
2019-03-19T13:10:22.909Z,42.40
2019-03-19T13:11:27.385Z,42.40
2019-03-19T13:12:31.878Z,42.30
2019-03-19T13:13:36.389Z,42.60
2019-03-19T13:14:40.899Z,42.60
2019-03-19T13:15:45.373Z,43.30
2019-03-19T13:16:49.874Z,42.80
2019-03-19T13:17:54.366Z,42.70
2019-03-19T13:18:59.013Z,42.60
2019-03-19T13:20:04.814Z,42.60
2019-03-19T13:21:09.295Z,42.60
2019-03-19T13:22:13.752Z,42.60
2019-03-19T13:23:18.242Z,42.90
2019-03-19T13:24:22.710Z,43.30
2019-03-19T13:25:27.248Z,43.90
2019-03-19T13:26:31.723Z,44.30
2019-03-19T13:27:36.178Z,44.70
2019-03-19T13:28:43.179Z,44.90
2019-03-19T13:29:46.868Z,45.10
2019-03-19T13:30:51.344Z,45.10
2019-03-19T13:31:55.816Z,44.70
2019-03-19T13:33:00.480Z,44.00
2019-03-19T13:34:05.097Z,43.90
2019-03-19T13:35:09.861Z,42.60
2019-03-19T13:36:14.333Z,42.00
2019-03-19T13:37:18.809Z,41.50
2019-03-19T13:38:23.310Z,41.10
2019-03-19T13:39:27.822Z,40.70
2019-03-19T13:40:32.289Z,40.30
2019-03-19T13:41:36.766Z,40.10
2019-03-19T13:42:41.361Z,39.70
2019-03-19T13:43:45.908Z,39.50
2019-03-19T13:44:50.386Z,39.30
2019-03-19T13:45:54.859Z,39.30
2019-03-19T13:46:59.340Z,39.10
2019-03-19T13:48:03.890Z,39.20
2019-03-19T13:49:08.356Z,39.10
2019-03-19T13:50:19.580Z,39.10
2019-03-19T13:51:24.051Z,38.90
2019-03-19T13:52:28.544Z,39.90
2019-03-19T13:53:33.085Z,39.10
2019-03-19T13:54:37.832Z,39.30
2019-03-19T13:55:42.423Z,39.40
2019-03-19T13:56:46.910Z,39.50